sensor_id;sensor_type;location;lat;lon;timestamp;pressure;altitude;pressure_sealevel;temperature;humidity
56518;BME280;42419;48.760;2.322;2023-07-31T00:01:44;100858.22;;;23.48;nan
56518;BME280;42419;48.760;2.322;2023-07-31T00:04:09;100863.59;;;23.48;nan
56518;BME280;42419;48.760;2.322;2023-07-31T00:06:34;100859.28;;;23.46;nan
56518;BME280;42419;48.760;2.322;2023-07-31T00:09:00;100818.41;;;23.22;nan
56518;BME280;42419;48.760;2.322;2023-07-31T00:11:25;100802.72;;;23.13;nan
56518;BME280;42419;48.760;2.322;2023-07-31T00:13:52;100858.56;;;23.42;nan
56518;BME280;42419;48.760;2.322;2023-07-31T00:16:18;100856.00;;;23.39;nan
56518;BME280;42419;48.760;2.322;2023-07-31T00:18:43;100844.50;;;23.37;nan
56518;BME280;42419;48.760;2.322;2023-07-31T00:21:08;100863.72;;;23.47;nan
56518;BME280;42419;48.760;2.322;2023-07-31T00:23:34;100858.34;;;23.47;nan
56518;BME280;42419;48.760;2.322;2023-07-31T00:25:59;100853.91;;;23.46;nan
56518;BME280;42419;48.760;2.322;2023-07-31T00:28:24;100844.31;;;23.40;nan
56518;BME280;42419;48.760;2.322;2023-07-31T00:30:50;100861.97;;;23.46;nan
56518;BME280;42419;48.760;2.322;2023-07-31T00:33:15;100854.84;;;23.45;nan
56518;BME280;42419;48.760;2.322;2023-07-31T00:35:40;100853.03;;;23.45;nan
56518;BME280;42419;48.760;2.322;2023-07-31T00:38:06;100853.09;;;23.44;nan
56518;BME280;42419;48.760;2.322;2023-07-31T00:40:37;100840.59;;;23.43;nan
56518;BME280;42419;48.760;2.322;2023-07-31T00:43:03;100830.81;;;23.42;nan
56518;BME280;42419;48.760;2.322;2023-07-31T00:45:29;100836.19;;;23.42;nan
56518;BME280;42419;48.760;2.322;2023-07-31T00:47:54;100830.34;;;23.34;nan
56518;BME280;42419;48.760;2.322;2023-07-31T00:50:20;100833.66;;;23.39;nan
56518;BME280;42419;48.760;2.322;2023-07-31T00:52:45;100835.50;;;23.38;nan
56518;BME280;42419;48.760;2.322;2023-07-31T00:55:10;100840.94;;;23.37;nan
56518;BME280;42419;48.760;2.322;2023-07-31T00:57:36;100832.06;;;23.35;nan
56518;BME280;42419;48.760;2.322;2023-07-31T01:00:03;100833.81;;;23.36;nan
56518;BME280;42419;48.760;2.322;2023-07-31T01:02:28;100830.25;;;23.35;nan
56518;BME280;42419;48.760;2.322;2023-07-31T01:04:57;100824.97;;;23.34;nan
56518;BME280;42419;48.760;2.322;2023-07-31T01:07:37;100832.25;;;23.32;nan
56518;BME280;42419;48.760;2.322;2023-07-31T01:10:16;100831.31;;;23.33;nan
56518;BME280;42419;48.760;2.322;2023-07-31T01:12:45;100824.09;;;23.33;nan
56518;BME280;42419;48.760;2.322;2023-07-31T01:15:11;100817.00;;;23.32;nan
56518;BME280;42419;48.760;2.322;2023-07-31T01:17:41;100815.31;;;23.29;nan
56518;BME280;42419;48.760;2.322;2023-07-31T01:20:22;100818.09;;;23.28;nan
56518;BME280;42419;48.760;2.322;2023-07-31T01:31:09;100792.19;;;23.27;nan
56518;BME280;42419;48.760;2.322;2023-07-31T01:33:36;100782.38;;;23.26;nan
56518;BME280;42419;48.760;2.322;2023-07-31T01:36:03;100785.06;;;23.26;nan
56518;BME280;42419;48.760;2.322;2023-07-31T01:38:29;100789.50;;;23.27;nan
56518;BME280;42419;48.760;2.322;2023-07-31T01:40:54;100798.50;;;23.26;nan
56518;BME280;42419;48.760;2.322;2023-07-31T01:43:20;100787.75;;;23.26;nan
56518;BME280;42419;48.760;2.322;2023-07-31T01:45:45;100791.38;;;23.25;nan
56518;BME280;42419;48.760;2.322;2023-07-31T01:48:10;100803.09;;;23.24;nan
56518;BME280;42419;48.760;2.322;2023-07-31T01:50:36;100803.09;;;23.24;nan
56518;BME280;42419;48.760;2.322;2023-07-31T01:53:01;100779.44;;;23.13;nan
56518;BME280;42419;48.760;2.322;2023-07-31T01:55:26;100795.09;;;23.22;nan
56518;BME280;42419;48.760;2.322;2023-07-31T01:57:52;100778.31;;;23.17;nan
56518;BME280;42419;48.760;2.322;2023-07-31T02:00:17;100791.53;;;23.22;nan
56518;BME280;42419;48.760;2.322;2023-07-31T02:02:43;100798.72;;;23.21;nan
56518;BME280;42419;48.760;2.322;2023-07-31T02:05:08;100801.41;;;23.21;nan
56518;BME280;42419;48.760;2.322;2023-07-31T02:07:34;100798.78;;;23.20;nan
56518;BME280;42419;48.760;2.322;2023-07-31T02:09:59;100799.66;;;23.20;nan
56518;BME280;42419;48.760;2.322;2023-07-31T02:12:24;100781.75;;;23.21;nan
56518;BME280;42419;48.760;2.322;2023-07-31T02:14:50;100789.88;;;23.19;nan
56518;BME280;42419;48.760;2.322;2023-07-31T02:17:15;100794.66;;;23.13;nan
56518;BME280;42419;48.760;2.322;2023-07-31T02:19:40;100788.06;;;23.20;nan
56518;BME280;42419;48.760;2.322;2023-07-31T02:22:06;100788.13;;;23.18;nan
56518;BME280;42419;48.760;2.322;2023-07-31T02:24:31;100766.16;;;23.10;nan
56518;BME280;42419;48.760;2.322;2023-07-31T02:26:57;100749.34;;;23.07;nan
56518;BME280;42419;48.760;2.322;2023-07-31T02:29:22;100721.28;;;22.95;nan
56518;BME280;42419;48.760;2.322;2023-07-31T02:31:47;100749.34;;;23.07;nan
56518;BME280;42419;48.760;2.322;2023-07-31T02:34:13;100768.50;;;23.16;nan
56518;BME280;42419;48.760;2.322;2023-07-31T02:36:38;100764.41;;;23.09;nan
56518;BME280;42419;48.760;2.322;2023-07-31T02:39:03;100756.91;;;23.16;nan
56518;BME280;42419;48.760;2.322;2023-07-31T02:41:30;100749.72;;;23.16;nan
56518;BME280;42419;48.760;2.322;2023-07-31T02:43:55;100729.75;;;23.05;nan
56518;BME280;42419;48.760;2.322;2023-07-31T02:46:20;100677.16;;;22.83;nan
56518;BME280;42419;48.760;2.322;2023-07-31T02:48:49;100720.75;;;23.06;nan
56518;BME280;42419;48.760;2.322;2023-07-31T02:51:14;100738.09;;;23.16;nan
56518;BME280;42419;48.760;2.322;2023-07-31T02:53:39;100746.25;;;23.14;nan
56518;BME280;42419;48.760;2.322;2023-07-31T02:56:05;100724.06;;;23.11;nan
56518;BME280;42419;48.760;2.322;2023-07-31T02:58:30;100726.00;;;23.07;nan
56518;BME280;42419;48.760;2.322;2023-07-31T03:00:58;100724.84;;;23.13;nan
56518;BME280;42419;48.760;2.322;2023-07-31T03:03:23;100726.75;;;23.11;nan
56518;BME280;42419;48.760;2.322;2023-07-31T03:05:48;100727.63;;;23.11;nan
56518;BME280;42419;48.760;2.322;2023-07-31T03:08:14;100733.00;;;23.11;nan
56518;BME280;42419;48.760;2.322;2023-07-31T03:10:39;100724.94;;;23.11;nan
56518;BME280;42419;48.760;2.322;2023-07-31T03:13:05;100733.06;;;23.10;nan
56518;BME280;42419;48.760;2.322;2023-07-31T03:15:30;100697.19;;;22.94;nan
56518;BME280;42419;48.760;2.322;2023-07-31T03:17:55;100727.69;;;23.10;nan
56518;BME280;42419;48.760;2.322;2023-07-31T03:20:21;100698.25;;;22.91;nan
56518;BME280;42419;48.760;2.322;2023-07-31T03:22:46;100739.38;;;23.09;nan
56518;BME280;42419;48.760;2.322;2023-07-31T03:25:11;100678.34;;;22.78;nan
56518;BME280;42419;48.760;2.322;2023-07-31T03:27:37;100728.63;;;23.09;nan
56518;BME280;42419;48.760;2.322;2023-07-31T03:30:03;100722.31;;;23.10;nan
56518;BME280;42419;48.760;2.322;2023-07-31T03:32:29;100717.13;;;23.07;nan
56518;BME280;42419;48.760;2.322;2023-07-31T03:34:54;100687.19;;;22.97;nan
56518;BME280;42419;48.760;2.322;2023-07-31T03:37:22;100686.16;;;23.00;nan
56518;BME280;42419;48.760;2.322;2023-07-31T03:39:47;100706.19;;;23.10;nan
56518;BME280;42419;48.760;2.322;2023-07-31T03:42:12;100711.56;;;23.10;nan
56518;BME280;42419;48.760;2.322;2023-07-31T03:44:37;100706.13;;;23.11;nan
56518;BME280;42419;48.760;2.322;2023-07-31T03:47:03;100724.94;;;23.11;nan
56518;BME280;42419;48.760;2.322;2023-07-31T03:49:28;100720.50;;;23.10;nan
56518;BME280;42419;48.760;2.322;2023-07-31T03:51:54;100721.38;;;23.11;nan
56518;BME280;42419;48.760;2.322;2023-07-31T03:54:19;100700.91;;;23.08;nan
56518;BME280;42419;48.760;2.322;2023-07-31T03:56:44;100719.81;;;23.07;nan
56518;BME280;42419;48.760;2.322;2023-07-31T03:59:10;100699.25;;;23.06;nan
56518;BME280;42419;48.760;2.322;2023-07-31T04:01:35;100706.50;;;23.04;nan
56518;BME280;42419;48.760;2.322;2023-07-31T04:04:00;100704.78;;;23.03;nan
56518;BME280;42419;48.760;2.322;2023-07-31T04:06:26;100701.31;;;23.01;nan
56518;BME280;42419;48.760;2.322;2023-07-31T04:08:51;100676.81;;;22.90;nan
56518;BME280;42419;48.760;2.322;2023-07-31T04:11:16;100695.94;;;23.01;nan
56518;BME280;42419;48.760;2.322;2023-07-31T04:13:42;100694.38;;;22.97;nan
56518;BME280;42419;48.760;2.322;2023-07-31T04:16:08;100698.63;;;23.01;nan
56518;BME280;42419;48.760;2.322;2023-07-31T04:18:33;100680.50;;;22.89;nan
56518;BME280;42419;48.760;2.322;2023-07-31T04:20:58;100701.31;;;23.01;nan
56518;BME280;42419;48.760;2.322;2023-07-31T04:23:25;100689.13;;;22.94;nan
56518;BME280;42419;48.760;2.322;2023-07-31T04:25:51;100693.44;;;22.98;nan
56518;BME280;42419;48.760;2.322;2023-07-31T04:28:16;100689.78;;;22.99;nan
56518;BME280;42419;48.760;2.322;2023-07-31T04:30:41;100697.81;;;22.99;nan
56518;BME280;42419;48.760;2.322;2023-07-31T04:33:07;100695.25;;;22.97;nan
56518;BME280;42419;48.760;2.322;2023-07-31T04:35:32;100693.50;;;22.96;nan
56518;BME280;42419;48.760;2.322;2023-07-31T04:37:57;100697.06;;;22.97;nan
56518;BME280;42419;48.760;2.322;2023-07-31T04:40:23;100684.19;;;22.86;nan
56518;BME280;42419;48.760;2.322;2023-07-31T04:42:48;100711.50;;;22.94;nan
56518;BME280;42419;48.760;2.322;2023-07-31T04:45:14;100695.78;;;22.87;nan
56518;BME280;42419;48.760;2.322;2023-07-31T04:47:39;100682.53;;;22.83;nan
56518;BME280;42419;48.760;2.322;2023-07-31T04:50:05;100695.38;;;22.94;nan
56518;BME280;42419;48.760;2.322;2023-07-31T04:52:30;100683.94;;;22.91;nan
56518;BME280;42419;48.760;2.322;2023-07-31T04:54:56;100677.94;;;22.85;nan
56518;BME280;42419;48.760;2.322;2023-07-31T04:57:21;100694.91;;;22.86;nan
56518;BME280;42419;48.760;2.322;2023-07-31T04:59:46;100707.16;;;22.92;nan
56518;BME280;42419;48.760;2.322;2023-07-31T05:02:12;100697.53;;;22.88;nan
56518;BME280;42419;48.760;2.322;2023-07-31T05:04:38;100703.69;;;22.90;nan
56518;BME280;42419;48.760;2.322;2023-07-31T05:07:04;100712.53;;;22.92;nan
56518;BME280;42419;48.760;2.322;2023-07-31T05:09:29;100717.91;;;22.92;nan
56518;BME280;42419;48.760;2.322;2023-07-31T05:11:54;100705.81;;;22.83;nan
56518;BME280;42419;48.760;2.322;2023-07-31T05:14:20;100690.81;;;22.79;nan
56518;BME280;42419;48.760;2.322;2023-07-31T05:16:45;100693.59;;;22.77;nan
56518;BME280;42419;48.760;2.322;2023-07-31T05:19:11;100689.00;;;22.79;nan
56518;BME280;42419;48.760;2.322;2023-07-31T05:21:36;100704.53;;;22.90;nan
56518;BME280;42419;48.760;2.322;2023-07-31T05:24:01;100709.03;;;22.90;nan
56518;BME280;42419;48.760;2.322;2023-07-31T05:26:27;100682.66;;;22.80;nan
56518;BME280;42419;48.760;2.322;2023-07-31T05:28:52;100704.66;;;22.89;nan
56518;BME280;42419;48.760;2.322;2023-07-31T05:31:17;100706.47;;;22.88;nan
56518;BME280;42419;48.760;2.322;2023-07-31T05:33:43;100695.16;;;22.81;nan
56518;BME280;42419;48.760;2.322;2023-07-31T05:36:08;100690.41;;;22.87;nan
56518;BME280;42419;48.760;2.322;2023-07-31T05:38:34;100696.84;;;22.84;nan
56518;BME280;42419;48.760;2.322;2023-07-31T05:40:59;100694.03;;;22.85;nan
56518;BME280;42419;48.760;2.322;2023-07-31T05:43:25;100692.22;;;22.86;nan
56518;BME280;42419;48.760;2.322;2023-07-31T05:45:50;100686.41;;;22.78;nan
56518;BME280;42419;48.760;2.322;2023-07-31T05:48:16;100692.34;;;22.84;nan
56518;BME280;42419;48.760;2.322;2023-07-31T05:50:43;100693.28;;;22.83;nan
56518;BME280;42419;48.760;2.322;2023-07-31T05:53:08;100688.78;;;22.84;nan
56518;BME280;42419;48.760;2.322;2023-07-31T05:55:34;100680.63;;;22.85;nan
56518;BME280;42419;48.760;2.322;2023-07-31T05:57:59;100689.72;;;22.83;nan
56518;BME280;42419;48.760;2.322;2023-07-31T06:00:24;100676.28;;;22.83;nan
56518;BME280;42419;48.760;2.322;2023-07-31T06:02:52;100682.53;;;22.83;nan
56518;BME280;42419;48.760;2.322;2023-07-31T06:05:18;100674.47;;;22.83;nan
56518;BME280;42419;48.760;2.322;2023-07-31T06:07:43;100671.22;;;22.77;nan
56518;BME280;42419;48.760;2.322;2023-07-31T06:10:08;100663.03;;;22.80;nan
56518;BME280;42419;48.760;2.322;2023-07-31T06:12:35;100669.88;;;22.85;nan
56518;BME280;42419;48.760;2.322;2023-07-31T06:15:01;100663.56;;;22.87;nan
56518;BME280;42419;48.760;2.322;2023-07-31T06:17:26;100654.66;;;22.86;nan
56518;BME280;42419;48.760;2.322;2023-07-31T06:19:52;100651.91;;;22.88;nan
56518;BME280;42419;48.760;2.322;2023-07-31T06:22:18;100639.66;;;22.82;nan
56518;BME280;42419;48.760;2.322;2023-07-31T06:24:43;100639.34;;;22.88;nan
56518;BME280;42419;48.760;2.322;2023-07-31T06:27:09;100649.22;;;22.88;nan
56518;BME280;42419;48.760;2.322;2023-07-31T06:29:35;100646.53;;;22.88;nan
56518;BME280;42419;48.760;2.322;2023-07-31T06:32:00;100651.81;;;22.89;nan
56518;BME280;42419;48.760;2.322;2023-07-31T06:34:25;100643.28;;;22.81;nan
56518;BME280;42419;48.760;2.322;2023-07-31T06:36:51;100659.00;;;22.89;nan
56518;BME280;42419;48.760;2.322;2023-07-31T06:39:16;100653.47;;;22.92;nan
56518;BME280;42419;48.760;2.322;2023-07-31T06:41:42;100655.28;;;22.91;nan
56518;BME280;42419;48.760;2.322;2023-07-31T06:44:08;100658.03;;;22.90;nan
56518;BME280;42419;48.760;2.322;2023-07-31T06:46:33;100658.84;;;22.92;nan
56518;BME280;42419;48.760;2.322;2023-07-31T06:48:59;100641.41;;;22.83;nan
56518;BME280;42419;48.760;2.322;2023-07-31T06:51:24;100660.47;;;22.94;nan
56518;BME280;42419;48.760;2.322;2023-07-31T06:53:52;100659.53;;;22.95;nan
56518;BME280;42419;48.760;2.322;2023-07-31T06:56:18;100661.34;;;22.95;nan
56518;BME280;42419;48.760;2.322;2023-07-31T06:58:43;100648.03;;;22.93;nan
56518;BME280;42419;48.760;2.322;2023-07-31T07:01:08;100656.91;;;22.94;nan
56518;BME280;42419;48.760;2.322;2023-07-31T07:03:34;100647.84;;;22.96;nan
56518;BME280;42419;48.760;2.322;2023-07-31T07:05:59;100655.03;;;22.96;nan
56518;BME280;42419;48.760;2.322;2023-07-31T07:08:25;100651.72;;;22.91;nan
56518;BME280;42419;48.760;2.322;2023-07-31T07:10:50;100649.66;;;22.96;nan
56518;BME280;42419;48.760;2.322;2023-07-31T07:13:16;100652.28;;;22.97;nan
56518;BME280;42419;48.760;2.322;2023-07-31T07:15:43;100654.09;;;22.97;nan
56518;BME280;42419;48.760;2.322;2023-07-31T07:18:09;100646.91;;;22.97;nan
56518;BME280;42419;48.760;2.322;2023-07-31T07:20:35;100648.63;;;22.98;nan
56518;BME280;42419;48.760;2.322;2023-07-31T07:23:00;100636.06;;;22.99;nan
56518;BME280;42419;48.760;2.322;2023-07-31T07:25:26;100636.06;;;22.99;nan
56518;BME280;42419;48.760;2.322;2023-07-31T07:27:51;100639.56;;;23.01;nan
56518;BME280;42419;48.760;2.322;2023-07-31T07:30:16;100636.88;;;23.01;nan
56518;BME280;42419;48.760;2.322;2023-07-31T07:32:42;100638.69;;;23.00;nan
56518;BME280;42419;48.760;2.322;2023-07-31T07:35:08;100628.75;;;23.02;nan
56518;BME280;42419;48.760;2.322;2023-07-31T07:37:34;100633.13;;;23.03;nan
56518;BME280;42419;48.760;2.322;2023-07-31T07:39:59;100625.94;;;23.04;nan
56518;BME280;42419;48.760;2.322;2023-07-31T07:42:24;100633.06;;;23.05;nan
56518;BME280;42419;48.760;2.322;2023-07-31T07:44:50;100641.13;;;23.05;nan
56518;BME280;42419;48.760;2.322;2023-07-31T07:47:15;100624.06;;;23.06;nan
56518;BME280;42419;48.760;2.322;2023-07-31T07:49:40;100629.44;;;23.06;nan
56518;BME280;42419;48.760;2.322;2023-07-31T07:52:06;100615.44;;;22.99;nan
56518;BME280;42419;48.760;2.322;2023-07-31T07:54:31;100623.19;;;23.05;nan
56518;BME280;42419;48.760;2.322;2023-07-31T07:56:57;100633.06;;;23.05;nan
56518;BME280;42419;48.760;2.322;2023-07-31T07:59:22;100631.56;;;22.99;nan
56518;BME280;42419;48.760;2.322;2023-07-31T08:01:48;100636.69;;;23.04;nan
56518;BME280;42419;48.760;2.322;2023-07-31T08:04:13;100633.25;;;23.02;nan
56518;BME280;42419;48.760;2.322;2023-07-31T08:06:38;100634.94;;;23.03;nan
56518;BME280;42419;48.760;2.322;2023-07-31T08:09:04;100628.75;;;23.02;nan
56518;BME280;42419;48.760;2.322;2023-07-31T08:11:34;100625.19;;;23.02;nan
56518;BME280;42419;48.760;2.322;2023-07-31T08:13:59;100621.06;;;22.95;nan
56518;BME280;42419;48.760;2.322;2023-07-31T08:16:27;100624.13;;;23.04;nan
56518;BME280;42419;48.760;2.322;2023-07-31T08:18:53;100616.31;;;23.00;nan
56518;BME280;42419;48.760;2.322;2023-07-31T08:21:18;100629.34;;;23.07;nan
56518;BME280;42419;48.760;2.322;2023-07-31T08:23:43;100633.75;;;23.08;nan
56518;BME280;42419;48.760;2.322;2023-07-31T08:26:17;100637.31;;;23.09;nan
56518;BME280;42419;48.760;2.322;2023-07-31T08:28:43;100628.31;;;23.10;nan
56518;BME280;42419;48.760;2.322;2023-07-31T08:31:08;100636.44;;;23.08;nan
56518;BME280;42419;48.760;2.322;2023-07-31T08:33:33;100619.63;;;23.05;nan
56518;BME280;42419;48.760;2.322;2023-07-31T08:35:58;100617.91;;;23.04;nan
56518;BME280;42419;48.760;2.322;2023-07-31T08:38:25;100624.22;;;23.03;nan
56518;BME280;42419;48.760;2.322;2023-07-31T08:40:50;100600.63;;;22.92;nan
56518;BME280;42419;48.760;2.322;2023-07-31T08:43:16;100608.28;;;23.00;nan
56518;BME280;42419;48.760;2.322;2023-07-31T08:45:42;100599.44;;;22.98;nan
56518;BME280;42419;48.760;2.322;2023-07-31T08:48:07;100606.53;;;22.99;nan
56518;BME280;42419;48.760;2.322;2023-07-31T08:50:33;100599.94;;;22.89;nan
56518;BME280;42419;48.760;2.322;2023-07-31T08:52:58;100636.94;;;22.99;nan
56518;BME280;42419;48.760;2.322;2023-07-31T08:55:24;100588.56;;;22.83;nan
56518;BME280;42419;48.760;2.322;2023-07-31T08:57:51;100619.00;;;23.00;nan
56518;BME280;42419;48.760;2.322;2023-07-31T09:00:20;100591.78;;;22.90;nan
56518;BME280;42419;48.760;2.322;2023-07-31T09:05:16;100614.50;;;23.00;nan
56518;BME280;42419;48.760;2.322;2023-07-31T09:07:43;100626.91;;;23.03;nan
56518;BME280;42419;48.760;2.322;2023-07-31T09:10:11;100628.63;;;23.04;nan
56518;BME280;42419;48.760;2.322;2023-07-31T09:12:38;100617.03;;;23.03;nan
56518;BME280;42419;48.760;2.322;2023-07-31T09:15:04;100609.06;;;23.02;nan
56518;BME280;42419;48.760;2.322;2023-07-31T09:17:30;100587.28;;;22.91;nan
56518;BME280;42419;48.760;2.322;2023-07-31T09:19:56;100607.34;;;23.01;nan
56518;BME280;42419;48.760;2.322;2023-07-31T09:22:32;100595.66;;;23.02;nan
56518;BME280;42419;48.760;2.322;2023-07-31T09:25:17;100608.09;;;23.03;nan
56518;BME280;42419;48.760;2.322;2023-07-31T09:27:51;100620.56;;;23.04;nan
56518;BME280;42419;48.760;2.322;2023-07-31T09:30:17;100599.34;;;22.99;nan
56518;BME280;42419;48.760;2.322;2023-07-31T09:32:44;100598.94;;;23.07;nan
56518;BME280;42419;48.760;2.322;2023-07-31T09:35:33;100615.13;;;23.05;nan
56518;BME280;42419;48.760;2.322;2023-07-31T09:38:15;100591.47;;;22.96;nan
56518;BME280;42419;48.760;2.322;2023-07-31T09:40:42;100615.75;;;23.10;nan
56518;BME280;42419;48.760;2.322;2023-07-31T09:43:10;100615.66;;;23.12;nan
56518;BME280;42419;48.760;2.322;2023-07-31T09:45:37;100604.06;;;23.11;nan
56518;BME280;42419;48.760;2.322;2023-07-31T09:48:07;100575.53;;;22.93;nan
56518;BME280;42419;48.760;2.322;2023-07-31T09:50:36;100604.06;;;23.11;nan
56518;BME280;42419;48.760;2.322;2023-07-31T09:53:02;100609.34;;;23.13;nan
56518;BME280;42419;48.760;2.322;2023-07-31T09:55:28;100595.03;;;23.12;nan
56518;BME280;42419;48.760;2.322;2023-07-31T09:57:55;100586.63;;;23.03;nan
56518;BME280;42419;48.760;2.322;2023-07-31T10:00:23;100602.97;;;23.15;nan
56518;BME280;42419;48.760;2.322;2023-07-31T10:02:50;100618.03;;;23.18;nan
56518;BME280;42419;48.760;2.322;2023-07-31T10:05:16;100607.28;;;23.18;nan
56518;BME280;42419;48.760;2.322;2023-07-31T10:07:48;100593.84;;;23.18;nan
56518;BME280;42419;48.760;2.322;2023-07-31T10:10:16;100594.72;;;23.18;nan
56518;BME280;42419;48.760;2.322;2023-07-31T10:12:41;100586.72;;;23.17;nan
56518;BME280;42419;48.760;2.322;2023-07-31T10:15:09;100562.75;;;23.14;nan
56518;BME280;42419;48.760;2.322;2023-07-31T10:17:35;100569.84;;;23.15;nan
56518;BME280;42419;48.760;2.322;2023-07-31T10:20:01;100572.88;;;23.09;nan
56518;BME280;42419;48.760;2.322;2023-07-31T10:22:30;100581.47;;;23.15;nan
56518;BME280;42419;48.760;2.322;2023-07-31T10:24:57;100567.25;;;23.13;nan
56518;BME280;42419;48.760;2.322;2023-07-31T10:27:23;100567.16;;;23.15;nan
56518;BME280;42419;48.760;2.322;2023-07-31T10:29:48;100553.03;;;23.11;nan
56518;BME280;42419;48.760;2.322;2023-07-31T10:32:15;100549.25;;;23.15;nan
56518;BME280;42419;48.760;2.322;2023-07-31T10:34:42;100559.00;;;23.16;nan
56518;BME280;42419;48.760;2.322;2023-07-31T10:37:29;100557.38;;;23.14;nan
56518;BME280;42419;48.760;2.322;2023-07-31T10:42:27;100530.47;;;22.98;nan
56518;BME280;42419;48.760;2.322;2023-07-31T10:44:57;100535.00;;;22.98;nan
56518;BME280;42419;48.760;2.322;2023-07-31T10:47:22;100571.56;;;23.16;nan
56518;BME280;42419;48.760;2.322;2023-07-31T10:49:48;100550.94;;;23.16;nan
56518;BME280;42419;48.760;2.322;2023-07-31T10:52:14;100544.69;;;23.16;nan
56518;BME280;42419;48.760;2.322;2023-07-31T10:54:44;100537.44;;;23.18;nan
56518;BME280;42419;48.760;2.322;2023-07-31T10:57:22;100540.19;;;23.16;nan
56518;BME280;42419;48.760;2.322;2023-07-31T10:59:48;100546.44;;;23.17;nan
56518;BME280;42419;48.760;2.322;2023-07-31T11:02:25;100539.50;;;23.13;nan
56518;BME280;42419;48.760;2.322;2023-07-31T11:05:10;100526.69;;;23.02;nan
56518;BME280;42419;48.760;2.322;2023-07-31T11:07:48;100523.75;;;23.07;nan
56518;BME280;42419;48.760;2.322;2023-07-31T11:10:18;100527.81;;;23.14;nan
56518;BME280;42419;48.760;2.322;2023-07-31T11:12:45;100519.16;;;23.09;nan
56518;BME280;42419;48.760;2.322;2023-07-31T11:15:11;100526.78;;;23.16;nan
56518;BME280;42419;48.760;2.322;2023-07-31T11:17:40;100520.53;;;23.16;nan
56518;BME280;42419;48.760;2.322;2023-07-31T11:20:06;100502.53;;;23.18;nan
56518;BME280;42419;48.760;2.322;2023-07-31T11:22:34;100506.25;;;23.15;nan
56518;BME280;42419;48.760;2.322;2023-07-31T11:24:59;100499.16;;;23.14;nan
56518;BME280;42419;48.760;2.322;2023-07-31T11:27:28;100480.94;;;23.04;nan
56518;BME280;42419;48.760;2.322;2023-07-31T11:30:00;100497.41;;;23.13;nan
56518;BME280;42419;48.760;2.322;2023-07-31T11:32:25;100493.41;;;23.05;nan
56518;BME280;42419;48.760;2.322;2023-07-31T11:34:52;100511.28;;;23.06;nan
56518;BME280;42419;48.760;2.322;2023-07-31T11:37:18;100526.78;;;23.16;nan
56518;BME280;42419;48.760;2.322;2023-07-31T11:39:43;100517.69;;;23.19;nan
56518;BME280;42419;48.760;2.322;2023-07-31T11:42:08;100528.44;;;23.19;nan
56518;BME280;42419;48.760;2.322;2023-07-31T11:44:39;100531.06;;;23.20;nan
56518;BME280;42419;48.760;2.322;2023-07-31T11:47:06;100515.94;;;23.18;nan
56518;BME280;42419;48.760;2.322;2023-07-31T11:49:31;100526.41;;;23.24;nan
56518;BME280;42419;48.760;2.322;2023-07-31T11:51:57;100518.34;;;23.24;nan
56518;BME280;42419;48.760;2.322;2023-07-31T11:54:22;100504.34;;;23.17;nan
56518;BME280;42419;48.760;2.322;2023-07-31T11:56:48;100496.53;;;23.13;nan
56518;BME280;42419;48.760;2.322;2023-07-31T11:59:14;100506.53;;;23.26;nan
56518;BME280;42419;48.760;2.322;2023-07-31T12:01:40;100508.69;;;23.20;nan
56518;BME280;42419;48.760;2.322;2023-07-31T12:04:06;100491.63;;;23.21;nan
56518;BME280;42419;48.760;2.322;2023-07-31T12:06:33;100493.53;;;23.19;nan
56518;BME280;42419;48.760;2.322;2023-07-31T12:09:05;100474.53;;;23.06;nan
56518;BME280;42419;48.760;2.322;2023-07-31T12:11:31;100495.09;;;23.23;nan
56518;BME280;42419;48.760;2.322;2023-07-31T12:13:56;100486.19;;;23.22;nan
56518;BME280;42419;48.760;2.322;2023-07-31T12:16:26;100483.56;;;23.21;nan
56518;BME280;42419;48.760;2.322;2023-07-31T12:18:52;100480.88;;;23.21;nan
56518;BME280;42419;48.760;2.322;2023-07-31T12:21:19;100481.81;;;23.20;nan
56518;BME280;42419;48.760;2.322;2023-07-31T12:23:44;100475.84;;;23.15;nan
56518;BME280;42419;48.760;2.322;2023-07-31T12:26:13;100475.66;;;23.18;nan
56518;BME280;42419;48.760;2.322;2023-07-31T12:28:46;100472.97;;;23.18;nan
56518;BME280;42419;48.760;2.322;2023-07-31T12:31:15;100474.56;;;23.22;nan
56518;BME280;42419;48.760;2.322;2023-07-31T12:33:43;100473.63;;;23.23;nan
56518;BME280;42419;48.760;2.322;2023-07-31T12:38:35;100464.69;;;23.22;nan
56518;BME280;42419;48.760;2.322;2023-07-31T12:41:00;100455.75;;;23.22;nan
56518;BME280;42419;48.760;2.322;2023-07-31T12:43:26;100443.69;;;23.13;nan
56518;BME280;42419;48.760;2.322;2023-07-31T12:45:51;100455.75;;;23.22;nan
56518;BME280;42419;48.760;2.322;2023-07-31T12:48:17;100455.13;;;23.17;nan
56518;BME280;42419;48.760;2.322;2023-07-31T12:50:42;100466.44;;;23.23;nan
56518;BME280;42419;48.760;2.322;2023-07-31T12:53:07;100448.38;;;23.25;nan
56518;BME280;42419;48.760;2.322;2023-07-31T12:55:33;100439.47;;;23.25;nan
56518;BME280;42419;48.760;2.322;2023-07-31T12:58:02;100424.13;;;23.27;nan
56518;BME280;42419;48.760;2.322;2023-07-31T13:00:27;100339.78;;;22.84;nan
56518;BME280;42419;48.760;2.322;2023-07-31T13:02:52;100403.59;;;23.26;nan
56518;BME280;42419;48.760;2.322;2023-07-31T13:05:18;100401.09;;;23.23;nan
56518;BME280;42419;48.760;2.322;2023-07-31T13:07:45;100389.22;;;23.27;nan
56518;BME280;42419;48.760;2.322;2023-07-31T13:10:10;100400.56;;;23.32;nan
56518;BME280;42419;48.760;2.322;2023-07-31T13:12:35;100375.25;;;23.20;nan
56518;BME280;42419;48.760;2.322;2023-07-31T13:15:00;100394.31;;;23.32;nan
56518;BME280;42419;48.760;2.322;2023-07-31T13:17:26;100382.50;;;23.34;nan
56518;BME280;42419;48.760;2.322;2023-07-31T13:19:51;100366.50;;;23.33;nan
56518;BME280;42419;48.760;2.322;2023-07-31T13:22:17;100365.38;;;23.37;nan